Airport View

Enter AWOS ICAO identifier for current METAR.

ex. KFNL

KHZE 190650Z AUTO 00000KT 8SM CLR M01/M01 A3004 RMK AO2

19 Apr 2019 06:50

Frequency: 118.675

Phone: 701-748-2443

Other Area AWOS: KN60 - KD57 - KY19 - KBIS

TAF KBIS 190537Z 1906/2006 21003KT P6SM SCT250 FM191800 20012G22KT P6SM SCT250 FM200100 22006KT P6SM SCT250